sensor_id;sensor_type;location;lat;lon;timestamp;P1;durP1;ratioP1;P2;durP2;ratioP2
11238;SDS011;5677;48.488;13.436;2023-08-06T00:00:19;1.07;;;1.00;;
11238;SDS011;5677;48.488;13.436;2023-08-06T00:02:47;0.80;;;0.80;;
11238;SDS011;5677;48.488;13.436;2023-08-06T00:05:14;0.93;;;0.93;;
11238;SDS011;5677;48.488;13.436;2023-08-06T00:07:43;1.10;;;1.10;;
11238;SDS011;5677;48.488;13.436;2023-08-06T00:10:09;1.20;;;1.00;;
11238;SDS011;5677;48.488;13.436;2023-08-06T00:12:36;0.90;;;0.90;;
11238;SDS011;5677;48.488;13.436;2023-08-06T00:15:03;1.00;;;0.93;;
11238;SDS011;5677;48.488;13.436;2023-08-06T00:17:30;0.90;;;0.90;;
11238;SDS011;5677;48.488;13.436;2023-08-06T00:19:59;0.80;;;0.80;;
11238;SDS011;5677;48.488;13.436;2023-08-06T00:22:29;0.87;;;0.87;;
11238;SDS011;5677;48.488;13.436;2023-08-06T00:24:56;0.80;;;0.80;;
11238;SDS011;5677;48.488;13.436;2023-08-06T00:27:23;1.00;;;1.00;;
11238;SDS011;5677;48.488;13.436;2023-08-06T00:29:50;0.80;;;0.80;;
11238;SDS011;5677;48.488;13.436;2023-08-06T00:32:16;1.00;;;1.00;;
11238;SDS011;5677;48.488;13.436;2023-08-06T00:34:43;0.93;;;0.93;;
11238;SDS011;5677;48.488;13.436;2023-08-06T00:37:11;1.00;;;1.00;;
11238;SDS011;5677;48.488;13.436;2023-08-06T00:39:38;0.80;;;0.80;;
11238;SDS011;5677;48.488;13.436;2023-08-06T00:42:05;0.80;;;0.80;;
11238;SDS011;5677;48.488;13.436;2023-08-06T00:44:32;1.03;;;1.00;;
11238;SDS011;5677;48.488;13.436;2023-08-06T00:46:58;1.00;;;1.00;;
11238;SDS011;5677;48.488;13.436;2023-08-06T00:49:25;0.90;;;0.90;;
11238;SDS011;5677;48.488;13.436;2023-08-06T00:51:52;0.80;;;0.80;;
11238;SDS011;5677;48.488;13.436;2023-08-06T00:54:20;1.00;;;1.00;;
11238;SDS011;5677;48.488;13.436;2023-08-06T00:56:47;0.80;;;0.80;;
11238;SDS011;5677;48.488;13.436;2023-08-06T00:59:14;2.13;;;0.73;;
11238;SDS011;5677;48.488;13.436;2023-08-06T01:01:40;0.90;;;0.90;;
11238;SDS011;5677;48.488;13.436;2023-08-06T01:04:07;0.90;;;0.90;;
11238;SDS011;5677;48.488;13.436;2023-08-06T01:06:35;0.80;;;0.80;;
11238;SDS011;5677;48.488;13.436;2023-08-06T01:09:11;0.90;;;0.90;;
11238;SDS011;5677;48.488;13.436;2023-08-06T01:11:50;1.20;;;1.10;;
11238;SDS011;5677;48.488;13.436;2023-08-06T01:14:27;0.90;;;0.90;;
11238;SDS011;5677;48.488;13.436;2023-08-06T01:16:57;1.00;;;1.00;;
11238;SDS011;5677;48.488;13.436;2023-08-06T01:19:25;0.93;;;0.93;;
11238;SDS011;5677;48.488;13.436;2023-08-06T01:21:53;1.10;;;1.00;;
11238;SDS011;5677;48.488;13.436;2023-08-06T01:24:19;1.00;;;1.00;;
11238;SDS011;5677;48.488;13.436;2023-08-06T01:26:48;0.93;;;0.93;;
11238;SDS011;5677;48.488;13.436;2023-08-06T01:29:22;0.90;;;0.90;;
11238;SDS011;5677;48.488;13.436;2023-08-06T01:31:53;1.07;;;1.03;;
11238;SDS011;5677;48.488;13.436;2023-08-06T01:34:24;0.80;;;0.80;;
11238;SDS011;5677;48.488;13.436;2023-08-06T01:36:56;1.00;;;1.00;;
11238;SDS011;5677;48.488;13.436;2023-08-06T01:39:23;1.03;;;1.03;;
11238;SDS011;5677;48.488;13.436;2023-08-06T01:41:50;1.20;;;1.10;;
11238;SDS011;5677;48.488;13.436;2023-08-06T01:44:17;1.00;;;1.00;;
11238;SDS011;5677;48.488;13.436;2023-08-06T01:46:44;1.00;;;1.00;;
11238;SDS011;5677;48.488;13.436;2023-08-06T01:49:11;1.00;;;1.00;;
11238;SDS011;5677;48.488;13.436;2023-08-06T01:51:38;1.17;;;1.10;;
11238;SDS011;5677;48.488;13.436;2023-08-06T01:54:06;0.83;;;0.83;;
11238;SDS011;5677;48.488;13.436;2023-08-06T01:56:32;0.90;;;0.90;;
11238;SDS011;5677;48.488;13.436;2023-08-06T01:58:59;0.90;;;0.90;;
11238;SDS011;5677;48.488;13.436;2023-08-06T02:01:26;1.17;;;1.07;;
11238;SDS011;5677;48.488;13.436;2023-08-06T02:03:53;1.00;;;1.00;;
11238;SDS011;5677;48.488;13.436;2023-08-06T02:06:19;0.90;;;0.90;;
11238;SDS011;5677;48.488;13.436;2023-08-06T02:08:46;1.10;;;1.00;;
11238;SDS011;5677;48.488;13.436;2023-08-06T02:11:15;1.00;;;1.00;;
11238;SDS011;5677;48.488;13.436;2023-08-06T02:13:43;0.77;;;0.77;;
11238;SDS011;5677;48.488;13.436;2023-08-06T02:16:10;1.10;;;1.10;;
11238;SDS011;5677;48.488;13.436;2023-08-06T02:18:36;1.07;;;1.03;;
11238;SDS011;5677;48.488;13.436;2023-08-06T02:21:03;1.00;;;1.00;;
11238;SDS011;5677;48.488;13.436;2023-08-06T02:23:30;1.20;;;1.20;;
11238;SDS011;5677;48.488;13.436;2023-08-06T02:25:57;0.97;;;0.97;;
11238;SDS011;5677;48.488;13.436;2023-08-06T02:28:26;0.90;;;0.90;;
11238;SDS011;5677;48.488;13.436;2023-08-06T02:30:53;1.10;;;1.10;;
11238;SDS011;5677;48.488;13.436;2023-08-06T02:33:20;1.00;;;1.00;;
11238;SDS011;5677;48.488;13.436;2023-08-06T02:35:47;1.00;;;1.00;;
11238;SDS011;5677;48.488;13.436;2023-08-06T02:38:13;1.10;;;1.10;;
11238;SDS011;5677;48.488;13.436;2023-08-06T02:40:42;0.87;;;0.87;;
11238;SDS011;5677;48.488;13.436;2023-08-06T02:43:10;0.90;;;0.90;;
11238;SDS011;5677;48.488;13.436;2023-08-06T02:45:38;1.10;;;1.10;;
11238;SDS011;5677;48.488;13.436;2023-08-06T02:48:05;0.90;;;0.90;;
11238;SDS011;5677;48.488;13.436;2023-08-06T02:50:38;0.90;;;0.90;;
11238;SDS011;5677;48.488;13.436;2023-08-06T02:53:05;1.10;;;1.10;;
11238;SDS011;5677;48.488;13.436;2023-08-06T02:55:32;1.10;;;1.10;;
11238;SDS011;5677;48.488;13.436;2023-08-06T02:57:59;1.00;;;0.90;;
11238;SDS011;5677;48.488;13.436;2023-08-06T03:00:26;0.97;;;0.97;;
11238;SDS011;5677;48.488;13.436;2023-08-06T03:06:16;1.00;;;1.00;;
11238;SDS011;5677;48.488;13.436;2023-08-06T03:08:43;1.00;;;1.00;;
11238;SDS011;5677;48.488;13.436;2023-08-06T03:11:09;0.80;;;0.80;;
11238;SDS011;5677;48.488;13.436;2023-08-06T03:13:36;1.00;;;1.00;;
11238;SDS011;5677;48.488;13.436;2023-08-06T03:16:03;1.07;;;1.07;;
11238;SDS011;5677;48.488;13.436;2023-08-06T03:18:30;0.80;;;0.80;;
11238;SDS011;5677;48.488;13.436;2023-08-06T03:20:56;0.70;;;0.70;;
11238;SDS011;5677;48.488;13.436;2023-08-06T03:23:24;1.10;;;1.07;;
11238;SDS011;5677;48.488;13.436;2023-08-06T03:25:51;1.00;;;1.00;;
11238;SDS011;5677;48.488;13.436;2023-08-06T03:28:18;0.80;;;0.80;;
11238;SDS011;5677;48.488;13.436;2023-08-06T03:30:45;1.07;;;1.07;;
11238;SDS011;5677;48.488;13.436;2023-08-06T03:33:12;1.00;;;1.00;;
11238;SDS011;5677;48.488;13.436;2023-08-06T03:35:38;0.90;;;0.90;;
11238;SDS011;5677;48.488;13.436;2023-08-06T03:38:05;1.00;;;1.00;;
11238;SDS011;5677;48.488;13.436;2023-08-06T03:40:34;0.90;;;0.90;;
11238;SDS011;5677;48.488;13.436;2023-08-06T03:43:01;1.20;;;1.20;;
11238;SDS011;5677;48.488;13.436;2023-08-06T03:45:28;1.00;;;1.00;;
11238;SDS011;5677;48.488;13.436;2023-08-06T03:47:55;1.00;;;1.00;;
11238;SDS011;5677;48.488;13.436;2023-08-06T03:50:21;0.90;;;0.90;;
11238;SDS011;5677;48.488;13.436;2023-08-06T03:52:48;1.00;;;1.00;;
11238;SDS011;5677;48.488;13.436;2023-08-06T03:55:15;0.90;;;0.90;;
11238;SDS011;5677;48.488;13.436;2023-08-06T03:57:43;0.80;;;0.80;;
11238;SDS011;5677;48.488;13.436;2023-08-06T04:00:10;0.93;;;0.93;;
11238;SDS011;5677;48.488;13.436;2023-08-06T04:02:37;0.90;;;0.90;;
11238;SDS011;5677;48.488;13.436;2023-08-06T04:05:04;1.30;;;1.20;;
11238;SDS011;5677;48.488;13.436;2023-08-06T04:07:31;0.90;;;0.90;;
11238;SDS011;5677;48.488;13.436;2023-08-06T04:09:58;1.10;;;1.10;;
11238;SDS011;5677;48.488;13.436;2023-08-06T04:12:26;0.87;;;0.87;;
11238;SDS011;5677;48.488;13.436;2023-08-06T04:14:55;1.07;;;0.97;;
11238;SDS011;5677;48.488;13.436;2023-08-06T04:17:23;1.00;;;1.00;;
11238;SDS011;5677;48.488;13.436;2023-08-06T04:19:51;1.27;;;1.00;;
11238;SDS011;5677;48.488;13.436;2023-08-06T04:22:19;0.90;;;0.90;;
11238;SDS011;5677;48.488;13.436;2023-08-06T04:24:47;1.00;;;1.00;;
11238;SDS011;5677;48.488;13.436;2023-08-06T04:27:14;0.90;;;0.90;;
11238;SDS011;5677;48.488;13.436;2023-08-06T04:29:42;0.90;;;0.90;;
11238;SDS011;5677;48.488;13.436;2023-08-06T04:32:10;0.90;;;0.90;;
11238;SDS011;5677;48.488;13.436;2023-08-06T04:34:37;1.00;;;1.00;;
11238;SDS011;5677;48.488;13.436;2023-08-06T04:37:04;0.87;;;0.87;;
11238;SDS011;5677;48.488;13.436;2023-08-06T04:39:31;0.80;;;0.80;;
11238;SDS011;5677;48.488;13.436;2023-08-06T04:41:58;1.10;;;1.10;;
11238;SDS011;5677;48.488;13.436;2023-08-06T04:44:24;1.00;;;1.00;;
11238;SDS011;5677;48.488;13.436;2023-08-06T04:46:51;0.83;;;0.83;;
11238;SDS011;5677;48.488;13.436;2023-08-06T04:49:21;1.10;;;1.10;;
11238;SDS011;5677;48.488;13.436;2023-08-06T04:51:47;1.30;;;1.20;;
11238;SDS011;5677;48.488;13.436;2023-08-06T04:54:14;1.00;;;1.00;;
11238;SDS011;5677;48.488;13.436;2023-08-06T04:56:41;1.00;;;1.00;;
11238;SDS011;5677;48.488;13.436;2023-08-06T04:59:08;0.87;;;0.87;;
11238;SDS011;5677;48.488;13.436;2023-08-06T05:01:34;0.90;;;0.90;;
11238;SDS011;5677;48.488;13.436;2023-08-06T05:04:01;0.90;;;0.90;;
11238;SDS011;5677;48.488;13.436;2023-08-06T05:06:29;0.90;;;0.90;;
11238;SDS011;5677;48.488;13.436;2023-08-06T05:08:56;0.80;;;0.80;;
11238;SDS011;5677;48.488;13.436;2023-08-06T05:11:23;0.80;;;0.80;;
11238;SDS011;5677;48.488;13.436;2023-08-06T05:13:50;1.37;;;1.27;;
11238;SDS011;5677;48.488;13.436;2023-08-06T05:16:17;0.97;;;0.97;;
11238;SDS011;5677;48.488;13.436;2023-08-06T05:18:44;1.00;;;1.00;;
11238;SDS011;5677;48.488;13.436;2023-08-06T05:21:10;1.00;;;1.00;;
11238;SDS011;5677;48.488;13.436;2023-08-06T05:23:38;0.80;;;0.80;;
11238;SDS011;5677;48.488;13.436;2023-08-06T05:26:05;1.00;;;1.00;;
11238;SDS011;5677;48.488;13.436;2023-08-06T05:28:32;1.17;;;1.07;;
11238;SDS011;5677;48.488;13.436;2023-08-06T05:30:59;0.90;;;0.90;;
11238;SDS011;5677;48.488;13.436;2023-08-06T05:33:29;1.03;;;1.00;;
11238;SDS011;5677;48.488;13.436;2023-08-06T05:35:56;1.00;;;1.00;;
11238;SDS011;5677;48.488;13.436;2023-08-06T05:38:22;0.90;;;0.90;;
11238;SDS011;5677;48.488;13.436;2023-08-06T05:40:50;0.90;;;0.90;;
11238;SDS011;5677;48.488;13.436;2023-08-06T05:43:17;0.93;;;0.93;;
11238;SDS011;5677;48.488;13.436;2023-08-06T05:45:44;0.80;;;0.80;;
11238;SDS011;5677;48.488;13.436;2023-08-06T05:48:11;1.03;;;1.03;;
11238;SDS011;5677;48.488;13.436;2023-08-06T05:50:38;0.73;;;0.73;;
11238;SDS011;5677;48.488;13.436;2023-08-06T05:53:05;1.10;;;1.00;;
11238;SDS011;5677;48.488;13.436;2023-08-06T05:55:32;1.00;;;1.00;;
11238;SDS011;5677;48.488;13.436;2023-08-06T05:58:00;1.20;;;1.10;;
11238;SDS011;5677;48.488;13.436;2023-08-06T06:00:27;1.00;;;1.00;;
11238;SDS011;5677;48.488;13.436;2023-08-06T06:02:54;1.17;;;1.10;;
11238;SDS011;5677;48.488;13.436;2023-08-06T06:05:21;1.03;;;1.03;;
11238;SDS011;5677;48.488;13.436;2023-08-06T06:07:47;1.10;;;1.10;;
11238;SDS011;5677;48.488;13.436;2023-08-06T06:10:14;1.00;;;1.00;;
11238;SDS011;5677;48.488;13.436;2023-08-06T06:12:41;1.00;;;1.00;;
11238;SDS011;5677;48.488;13.436;2023-08-06T06:15:09;0.87;;;0.87;;
11238;SDS011;5677;48.488;13.436;2023-08-06T06:17:36;1.20;;;1.10;;
11238;SDS011;5677;48.488;13.436;2023-08-06T06:20:03;1.33;;;1.23;;
11238;SDS011;5677;48.488;13.436;2023-08-06T06:22:31;0.90;;;0.90;;
11238;SDS011;5677;48.488;13.436;2023-08-06T06:24:58;1.23;;;0.90;;
11238;SDS011;5677;48.488;13.436;2023-08-06T06:27:24;0.97;;;0.97;;
11238;SDS011;5677;48.488;13.436;2023-08-06T06:29:51;1.00;;;1.00;;
11238;SDS011;5677;48.488;13.436;2023-08-06T06:32:21;0.90;;;0.90;;
11238;SDS011;5677;48.488;13.436;2023-08-06T06:34:47;0.80;;;0.80;;
11238;SDS011;5677;48.488;13.436;2023-08-06T06:37:14;0.80;;;0.80;;
11238;SDS011;5677;48.488;13.436;2023-08-06T06:39:41;1.00;;;1.00;;
11238;SDS011;5677;48.488;13.436;2023-08-06T06:42:09;1.17;;;1.10;;
11238;SDS011;5677;48.488;13.436;2023-08-06T06:44:35;1.10;;;1.10;;
11238;SDS011;5677;48.488;13.436;2023-08-06T06:47:02;0.97;;;0.97;;
11238;SDS011;5677;48.488;13.436;2023-08-06T06:49:31;1.00;;;1.00;;
11238;SDS011;5677;48.488;13.436;2023-08-06T06:51:58;0.90;;;0.90;;
11238;SDS011;5677;48.488;13.436;2023-08-06T06:54:24;0.90;;;0.90;;
11238;SDS011;5677;48.488;13.436;2023-08-06T06:56:51;1.00;;;1.00;;
11238;SDS011;5677;48.488;13.436;2023-08-06T06:59:18;0.97;;;0.97;;
11238;SDS011;5677;48.488;13.436;2023-08-06T07:01:44;0.90;;;0.90;;
11238;SDS011;5677;48.488;13.436;2023-08-06T07:04:11;1.00;;;1.00;;
11238;SDS011;5677;48.488;13.436;2023-08-06T07:06:42;0.73;;;0.73;;
11238;SDS011;5677;48.488;13.436;2023-08-06T07:09:08;1.07;;;0.90;;
11238;SDS011;5677;48.488;13.436;2023-08-06T07:11:35;1.00;;;1.00;;
11238;SDS011;5677;48.488;13.436;2023-08-06T07:14:02;1.07;;;1.07;;
11238;SDS011;5677;48.488;13.436;2023-08-06T07:16:29;0.80;;;0.80;;
11238;SDS011;5677;48.488;13.436;2023-08-06T07:18:55;0.90;;;0.90;;
11238;SDS011;5677;48.488;13.436;2023-08-06T07:21:22;1.10;;;1.00;;
11238;SDS011;5677;48.488;13.436;2023-08-06T07:23:50;1.00;;;1.00;;
11238;SDS011;5677;48.488;13.436;2023-08-06T07:26:17;0.93;;;0.93;;
11238;SDS011;5677;48.488;13.436;2023-08-06T07:28:44;1.10;;;1.10;;
11238;SDS011;5677;48.488;13.436;2023-08-06T07:31:10;1.07;;;0.93;;
11238;SDS011;5677;48.488;13.436;2023-08-06T07:33:37;1.20;;;1.10;;
11238;SDS011;5677;48.488;13.436;2023-08-06T07:36:07;0.90;;;0.90;;
11238;SDS011;5677;48.488;13.436;2023-08-06T07:38:35;0.90;;;0.90;;
11238;SDS011;5677;48.488;13.436;2023-08-06T07:41:03;0.67;;;0.67;;
11238;SDS011;5677;48.488;13.436;2023-08-06T07:43:30;0.90;;;0.90;;
11238;SDS011;5677;48.488;13.436;2023-08-06T07:45:57;0.90;;;0.90;;
11238;SDS011;5677;48.488;13.436;2023-08-06T07:48:25;0.90;;;0.90;;
11238;SDS011;5677;48.488;13.436;2023-08-06T07:50:52;0.90;;;0.90;;
11238;SDS011;5677;48.488;13.436;2023-08-06T07:53:19;0.93;;;0.93;;
11238;SDS011;5677;48.488;13.436;2023-08-06T07:55:47;1.00;;;1.00;;
11238;SDS011;5677;48.488;13.436;2023-08-06T07:58:17;0.97;;;0.97;;
11238;SDS011;5677;48.488;13.436;2023-08-06T08:00:44;0.90;;;0.90;;
11238;SDS011;5677;48.488;13.436;2023-08-06T08:03:11;0.83;;;0.83;;
11238;SDS011;5677;48.488;13.436;2023-08-06T08:05:38;0.90;;;0.90;;
11238;SDS011;5677;48.488;13.436;2023-08-06T08:08:05;1.00;;;1.00;;
11238;SDS011;5677;48.488;13.436;2023-08-06T08:10:32;1.00;;;1.00;;
11238;SDS011;5677;48.488;13.436;2023-08-06T08:13:00;0.90;;;0.90;;
11238;SDS011;5677;48.488;13.436;2023-08-06T08:15:29;1.03;;;1.03;;
11238;SDS011;5677;48.488;13.436;2023-08-06T08:17:56;1.00;;;1.00;;
11238;SDS011;5677;48.488;13.436;2023-08-06T08:20:23;0.93;;;0.93;;
11238;SDS011;5677;48.488;13.436;2023-08-06T08:22:52;1.10;;;1.10;;
11238;SDS011;5677;48.488;13.436;2023-08-06T08:25:19;0.80;;;0.80;;
11238;SDS011;5677;48.488;13.436;2023-08-06T08:27:46;1.30;;;1.20;;
11238;SDS011;5677;48.488;13.436;2023-08-06T08:30:12;1.00;;;1.00;;
11238;SDS011;5677;48.488;13.436;2023-08-06T08:32:40;1.00;;;1.00;;
11238;SDS011;5677;48.488;13.436;2023-08-06T08:35:08;0.90;;;0.90;;
11238;SDS011;5677;48.488;13.436;2023-08-06T08:37:37;1.00;;;1.00;;
11238;SDS011;5677;48.488;13.436;2023-08-06T08:40:04;0.80;;;0.80;;
11238;SDS011;5677;48.488;13.436;2023-08-06T08:42:32;1.00;;;1.00;;
11238;SDS011;5677;48.488;13.436;2023-08-06T08:44:59;0.90;;;0.90;;
11238;SDS011;5677;48.488;13.436;2023-08-06T08:47:26;1.00;;;1.00;;
11238;SDS011;5677;48.488;13.436;2023-08-06T08:49:54;1.07;;;1.07;;
11238;SDS011;5677;48.488;13.436;2023-08-06T08:52:21;0.90;;;0.90;;
11238;SDS011;5677;48.488;13.436;2023-08-06T08:54:49;0.80;;;0.80;;
11238;SDS011;5677;48.488;13.436;2023-08-06T08:57:18;1.23;;;1.13;;
11238;SDS011;5677;48.488;13.436;2023-08-06T08:59:44;0.90;;;0.90;;
11238;SDS011;5677;48.488;13.436;2023-08-06T09:02:11;1.10;;;1.00;;
11238;SDS011;5677;48.488;13.436;2023-08-06T09:04:40;1.00;;;1.00;;
11238;SDS011;5677;48.488;13.436;2023-08-06T09:07:10;0.90;;;0.90;;
11238;SDS011;5677;48.488;13.436;2023-08-06T09:09:42;0.83;;;0.83;;
11238;SDS011;5677;48.488;13.436;2023-08-06T09:12:14;0.83;;;0.83;;
11238;SDS011;5677;48.488;13.436;2023-08-06T09:14:42;1.20;;;1.10;;
11238;SDS011;5677;48.488;13.436;2023-08-06T09:17:09;1.10;;;1.10;;
11238;SDS011;5677;48.488;13.436;2023-08-06T09:19:36;1.00;;;1.00;;
11238;SDS011;5677;48.488;13.436;2023-08-06T09:22:03;1.00;;;1.00;;
11238;SDS011;5677;48.488;13.436;2023-08-06T09:24:39;0.90;;;0.90;;
11238;SDS011;5677;48.488;13.436;2023-08-06T09:27:10;0.93;;;0.93;;
11238;SDS011;5677;48.488;13.436;2023-08-06T09:29:39;1.10;;;1.10;;
11238;SDS011;5677;48.488;13.436;2023-08-06T09:32:10;0.90;;;0.90;;
11238;SDS011;5677;48.488;13.436;2023-08-06T09:34:38;0.90;;;0.90;;
11238;SDS011;5677;48.488;13.436;2023-08-06T09:37:07;0.80;;;0.80;;
11238;SDS011;5677;48.488;13.436;2023-08-06T09:39:36;1.00;;;1.00;;
11238;SDS011;5677;48.488;13.436;2023-08-06T09:42:07;0.90;;;0.90;;
11238;SDS011;5677;48.488;13.436;2023-08-06T09:44:34;0.90;;;0.90;;
11238;SDS011;5677;48.488;13.436;2023-08-06T09:47:01;1.00;;;1.00;;
11238;SDS011;5677;48.488;13.436;2023-08-06T09:49:40;1.10;;;1.10;;
11238;SDS011;5677;48.488;13.436;2023-08-06T09:52:09;0.90;;;0.90;;
11238;SDS011;5677;48.488;13.436;2023-08-06T09:54:37;0.90;;;0.90;;
11238;SDS011;5677;48.488;13.436;2023-08-06T09:57:04;0.80;;;0.80;;
11238;SDS011;5677;48.488;13.436;2023-08-06T09:59:33;1.00;;;1.00;;
11238;SDS011;5677;48.488;13.436;2023-08-06T10:05:23;0.90;;;0.90;;
11238;SDS011;5677;48.488;13.436;2023-08-06T10:07:50;0.90;;;0.90;;
11238;SDS011;5677;48.488;13.436;2023-08-06T10:10:18;0.90;;;0.90;;
11238;SDS011;5677;48.488;13.436;2023-08-06T10:12:46;0.90;;;0.90;;
11238;SDS011;5677;48.488;13.436;2023-08-06T10:15:16;0.97;;;0.83;;
11238;SDS011;5677;48.488;13.436;2023-08-06T10:17:47;1.10;;;1.00;;
11238;SDS011;5677;48.488;13.436;2023-08-06T10:20:17;1.00;;;1.00;;
11238;SDS011;5677;48.488;13.436;2023-08-06T10:26:07;0.80;;;0.80;;
11238;SDS011;5677;48.488;13.436;2023-08-06T10:28:35;0.80;;;0.80;;
11238;SDS011;5677;48.488;13.436;2023-08-06T10:31:04;0.90;;;0.90;;
11238;SDS011;5677;48.488;13.436;2023-08-06T10:33:41;0.87;;;0.87;;
11238;SDS011;5677;48.488;13.436;2023-08-06T10:36:09;1.03;;;1.03;;
11238;SDS011;5677;48.488;13.436;2023-08-06T10:38:43;1.00;;;1.00;;
11238;SDS011;5677;48.488;13.436;2023-08-06T10:41:14;1.03;;;1.03;;
11238;SDS011;5677;48.488;13.436;2023-08-06T10:43:42;0.90;;;0.90;;
11238;SDS011;5677;48.488;13.436;2023-08-06T10:46:21;0.80;;;0.80;;
11238;SDS011;5677;48.488;13.436;2023-08-06T10:48:49;0.77;;;0.77;;
11238;SDS011;5677;48.488;13.436;2023-08-06T10:51:16;0.80;;;0.80;;
11238;SDS011;5677;48.488;13.436;2023-08-06T10:53:44;1.17;;;1.10;;
11238;SDS011;5677;48.488;13.436;2023-08-06T10:56:12;0.93;;;0.93;;
11238;SDS011;5677;48.488;13.436;2023-08-06T10:58:39;1.10;;;1.00;;
11238;SDS011;5677;48.488;13.436;2023-08-06T11:01:06;0.80;;;0.80;;
11238;SDS011;5677;48.488;13.436;2023-08-06T11:03:34;0.90;;;0.90;;
11238;SDS011;5677;48.488;13.436;2023-08-06T11:06:02;0.80;;;0.80;;
11238;SDS011;5677;48.488;13.436;2023-08-06T11:08:34;1.20;;;1.10;;
11238;SDS011;5677;48.488;13.436;2023-08-06T11:11:09;0.80;;;0.80;;
11238;SDS011;5677;48.488;13.436;2023-08-06T11:13:38;0.90;;;0.90;;
11238;SDS011;5677;48.488;13.436;2023-08-06T11:16:04;0.80;;;0.80;;
11238;SDS011;5677;48.488;13.436;2023-08-06T11:18:31;0.90;;;0.90;;
11238;SDS011;5677;48.488;13.436;2023-08-06T11:21:00;0.73;;;0.73;;
11238;SDS011;5677;48.488;13.436;2023-08-06T11:23:27;0.90;;;0.90;;
11238;SDS011;5677;48.488;13.436;2023-08-06T11:25:54;0.90;;;0.90;;
11238;SDS011;5677;48.488;13.436;2023-08-06T11:28:21;1.00;;;1.00;;
11238;SDS011;5677;48.488;13.436;2023-08-06T11:30:48;0.90;;;0.90;;
11238;SDS011;5677;48.488;13.436;2023-08-06T11:33:19;0.73;;;0.73;;
11238;SDS011;5677;48.488;13.436;2023-08-06T11:35:47;0.97;;;0.90;;
11238;SDS011;5677;48.488;13.436;2023-08-06T11:38:15;0.90;;;0.90;;
11238;SDS011;5677;48.488;13.436;2023-08-06T11:40:43;1.00;;;0.90;;
11238;SDS011;5677;48.488;13.436;2023-08-06T11:43:10;0.90;;;0.90;;
11238;SDS011;5677;48.488;13.436;2023-08-06T11:45:37;0.90;;;0.90;;
11238;SDS011;5677;48.488;13.436;2023-08-06T11:48:04;1.00;;;1.00;;
11238;SDS011;5677;48.488;13.436;2023-08-06T11:50:35;1.03;;;0.93;;
11238;SDS011;5677;48.488;13.436;2023-08-06T11:53:03;1.03;;;1.03;;
11238;SDS011;5677;48.488;13.436;2023-08-06T11:55:31;0.90;;;0.90;;
11238;SDS011;5677;48.488;13.436;2023-08-06T11:57:59;0.90;;;0.90;;
11238;SDS011;5677;48.488;13.436;2023-08-06T12:00:29;0.80;;;0.80;;
11238;SDS011;5677;48.488;13.436;2023-08-06T12:02:56;0.80;;;0.80;;
11238;SDS011;5677;48.488;13.436;2023-08-06T12:05:23;0.73;;;0.73;;
11238;SDS011;5677;48.488;13.436;2023-08-06T12:07:55;0.70;;;0.70;;
11238;SDS011;5677;48.488;13.436;2023-08-06T12:10:24;0.80;;;0.80;;
11238;SDS011;5677;48.488;13.436;2023-08-06T12:12:54;1.00;;;1.00;;
11238;SDS011;5677;48.488;13.436;2023-08-06T12:15:21;0.77;;;0.77;;
11238;SDS011;5677;48.488;13.436;2023-08-06T12:17:49;0.77;;;0.77;;
11238;SDS011;5677;48.488;13.436;2023-08-06T12:20:16;0.80;;;0.80;;
11238;SDS011;5677;48.488;13.436;2023-08-06T12:22:43;0.97;;;0.97;;
11238;SDS011;5677;48.488;13.436;2023-08-06T12:25:11;1.00;;;1.00;;
11238;SDS011;5677;48.488;13.436;2023-08-06T12:27:38;1.00;;;1.00;;
11238;SDS011;5677;48.488;13.436;2023-08-06T12:30:08;0.80;;;0.80;;
11238;SDS011;5677;48.488;13.436;2023-08-06T12:32:35;0.70;;;0.70;;
11238;SDS011;5677;48.488;13.436;2023-08-06T12:35:03;0.87;;;0.87;;
11238;SDS011;5677;48.488;13.436;2023-08-06T12:37:32;0.83;;;0.83;;
11238;SDS011;5677;48.488;13.436;2023-08-06T12:39:59;0.80;;;0.80;;
11238;SDS011;5677;48.488;13.436;2023-08-06T12:42:26;0.90;;;0.90;;
11238;SDS011;5677;48.488;13.436;2023-08-06T12:44:52;0.90;;;0.90;;
11238;SDS011;5677;48.488;13.436;2023-08-06T12:47:21;0.90;;;0.90;;
11238;SDS011;5677;48.488;13.436;2023-08-06T12:49:47;0.80;;;0.80;;
11238;SDS011;5677;48.488;13.436;2023-08-06T12:52:15;0.97;;;0.90;;
11238;SDS011;5677;48.488;13.436;2023-08-06T12:54:44;0.63;;;0.63;;
11238;SDS011;5677;48.488;13.436;2023-08-06T12:57:11;1.00;;;1.00;;
11238;SDS011;5677;48.488;13.436;2023-08-06T12:59:39;1.00;;;0.90;;
11238;SDS011;5677;48.488;13.436;2023-08-06T13:02:06;0.80;;;0.80;;
11238;SDS011;5677;48.488;13.436;2023-08-06T13:04:34;0.90;;;0.77;;
11238;SDS011;5677;48.488;13.436;2023-08-06T13:07:01;0.77;;;0.70;;
11238;SDS011;5677;48.488;13.436;2023-08-06T13:09:27;4.40;;;1.00;;
11238;SDS011;5677;48.488;13.436;2023-08-06T13:11:55;2.53;;;1.30;;
11238;SDS011;5677;48.488;13.436;2023-08-06T13:14:23;3.80;;;1.10;;
11238;SDS011;5677;48.488;13.436;2023-08-06T13:16:49;5.67;;;1.27;;
11238;SDS011;5677;48.488;13.436;2023-08-06T13:19:16;4.90;;;1.07;;
11238;SDS011;5677;48.488;13.436;2023-08-06T13:22:00;11.83;;;1.20;;
11238;SDS011;5677;48.488;13.436;2023-08-06T13:24:28;6.33;;;1.57;;
11238;SDS011;5677;48.488;13.436;2023-08-06T13:26:55;5.43;;;1.13;;
11238;SDS011;5677;48.488;13.436;2023-08-06T13:29:22;7.53;;;1.30;;
11238;SDS011;5677;48.488;13.436;2023-08-06T13:31:50;2.13;;;1.10;;
11238;SDS011;5677;48.488;13.436;2023-08-06T13:34:17;2.03;;;1.07;;
11238;SDS011;5677;48.488;13.436;2023-08-06T13:36:43;2.23;;;1.20;;
11238;SDS011;5677;48.488;13.436;2023-08-06T13:39:12;2.70;;;1.20;;
11238;SDS011;5677;48.488;13.436;2023-08-06T13:41:41;5.70;;;1.33;;
11238;SDS011;5677;48.488;13.436;2023-08-06T13:44:08;4.97;;;1.37;;
11238;SDS011;5677;48.488;13.436;2023-08-06T13:46:35;1.57;;;0.70;;
11238;SDS011;5677;48.488;13.436;2023-08-06T13:49:02;2.73;;;0.80;;
11238;SDS011;5677;48.488;13.436;2023-08-06T13:51:29;0.57;;;0.40;;
11238;SDS011;5677;48.488;13.436;2023-08-06T13:53:55;1.47;;;0.40;;
11238;SDS011;5677;48.488;13.436;2023-08-06T13:56:24;0.20;;;0.20;;
11238;SDS011;5677;48.488;13.436;2023-08-06T13:58:50;0.80;;;0.43;;
11238;SDS011;5677;48.488;13.436;2023-08-06T14:01:17;1.80;;;0.50;;
11238;SDS011;5677;48.488;13.436;2023-08-06T14:03:44;1.33;;;0.60;;
11238;SDS011;5677;48.488;13.436;2023-08-06T14:06:11;1.03;;;0.37;;
11238;SDS011;5677;48.488;13.436;2023-08-06T14:08:38;0.27;;;0.27;;
11238;SDS011;5677;48.488;13.436;2023-08-06T14:11:05;0.30;;;0.30;;
11238;SDS011;5677;48.488;13.436;2023-08-06T14:13:33;0.43;;;0.27;;
11238;SDS011;5677;48.488;13.436;2023-08-06T14:16:00;0.30;;;0.30;;
11238;SDS011;5677;48.488;13.436;2023-08-06T14:18:27;1.23;;;0.20;;
11238;SDS011;5677;48.488;13.436;2023-08-06T14:20:54;0.57;;;0.30;;
11238;SDS011;5677;48.488;13.436;2023-08-06T14:23:20;3.17;;;0.63;;
11238;SDS011;5677;48.488;13.436;2023-08-06T14:25:47;1.97;;;0.40;;
11238;SDS011;5677;48.488;13.436;2023-08-06T14:28:14;1.23;;;0.50;;
11238;SDS011;5677;48.488;13.436;2023-08-06T14:30:42;4.90;;;0.82;;
11238;SDS011;5677;48.488;13.436;2023-08-06T14:33:09;2.17;;;0.67;;
11238;SDS011;5677;48.488;13.436;2023-08-06T14:35:35;3.00;;;0.60;;
11238;SDS011;5677;48.488;13.436;2023-08-06T14:38:02;0.73;;;0.53;;
11238;SDS011;5677;48.488;13.436;2023-08-06T14:40:29;4.83;;;0.83;;
11238;SDS011;5677;48.488;13.436;2023-08-06T14:42:59;2.50;;;0.50;;
11238;SDS011;5677;48.488;13.436;2023-08-06T14:45:26;1.67;;;0.60;;
11238;SDS011;5677;48.488;13.436;2023-08-06T14:47:54;1.07;;;0.50;;
11238;SDS011;5677;48.488;13.436;2023-08-06T14:50:21;2.73;;;0.80;;
11238;SDS011;5677;48.488;13.436;2023-08-06T14:52:48;2.10;;;0.70;;
11238;SDS011;5677;48.488;13.436;2023-08-06T14:55:17;1.27;;;0.70;;
11238;SDS011;5677;48.488;13.436;2023-08-06T14:57:49;1.73;;;0.70;;
11238;SDS011;5677;48.488;13.436;2023-08-06T15:00:15;1.20;;;0.60;;